sensor_id;sensor_type;location;lat;lon;timestamp;temperature;humidity
11597;DHT22;5854;48.072;16.286;2023-05-19T00:01:28;10.50;77.20
11597;DHT22;5854;48.072;16.286;2023-05-19T00:03:57;10.40;78.40
11597;DHT22;5854;48.072;16.286;2023-05-19T00:06:28;10.40;78.10
11597;DHT22;5854;48.072;16.286;2023-05-19T00:08:58;10.40;77.80
11597;DHT22;5854;48.072;16.286;2023-05-19T00:11:27;10.40;76.90
11597;DHT22;5854;48.072;16.286;2023-05-19T00:13:56;10.40;77.80
11597;DHT22;5854;48.072;16.286;2023-05-19T00:16:26;10.40;78.70
11597;DHT22;5854;48.072;16.286;2023-05-19T00:18:54;10.40;78.30
11597;DHT22;5854;48.072;16.286;2023-05-19T00:21:22;10.40;77.80
11597;DHT22;5854;48.072;16.286;2023-05-19T00:23:49;10.40;77.50
11597;DHT22;5854;48.072;16.286;2023-05-19T00:26:17;10.40;80.30
11597;DHT22;5854;48.072;16.286;2023-05-19T00:28:44;10.40;80.20
11597;DHT22;5854;48.072;16.286;2023-05-19T00:31:11;10.40;78.70
11597;DHT22;5854;48.072;16.286;2023-05-19T00:33:39;10.40;79.10
11597;DHT22;5854;48.072;16.286;2023-05-19T00:36:07;10.40;78.50
11597;DHT22;5854;48.072;16.286;2023-05-19T00:38:35;10.40;79.60
11597;DHT22;5854;48.072;16.286;2023-05-19T00:41:03;10.40;80.70
11597;DHT22;5854;48.072;16.286;2023-05-19T00:43:32;10.40;79.50
11597;DHT22;5854;48.072;16.286;2023-05-19T00:45:59;10.40;77.90
11597;DHT22;5854;48.072;16.286;2023-05-19T00:48:27;10.40;79.90
11597;DHT22;5854;48.072;16.286;2023-05-19T00:50:56;10.40;80.20
11597;DHT22;5854;48.072;16.286;2023-05-19T00:53:28;10.40;80.70
11597;DHT22;5854;48.072;16.286;2023-05-19T00:55:56;10.40;80.20
11597;DHT22;5854;48.072;16.286;2023-05-19T00:58:24;10.30;80.30
11597;DHT22;5854;48.072;16.286;2023-05-19T01:00:54;10.30;81.50
11597;DHT22;5854;48.072;16.286;2023-05-19T01:03:28;10.30;80.10
11597;DHT22;5854;48.072;16.286;2023-05-19T01:05:57;10.30;81.30
11597;DHT22;5854;48.072;16.286;2023-05-19T01:08:29;10.30;81.70
11597;DHT22;5854;48.072;16.286;2023-05-19T01:10:57;10.30;82.20
11597;DHT22;5854;48.072;16.286;2023-05-19T01:13:25;10.30;81.20
11597;DHT22;5854;48.072;16.286;2023-05-19T01:16:02;10.30;80.60
11597;DHT22;5854;48.072;16.286;2023-05-19T01:18:46;10.30;79.80
11597;DHT22;5854;48.072;16.286;2023-05-19T01:25:05;10.30;82.00
11597;DHT22;5854;48.072;16.286;2023-05-19T01:27:55;10.30;82.20
11597;DHT22;5854;48.072;16.286;2023-05-19T01:30:36;10.30;82.10
11597;DHT22;5854;48.072;16.286;2023-05-19T01:33:07;10.30;81.00
11597;DHT22;5854;48.072;16.286;2023-05-19T01:35:36;10.30;80.50
11597;DHT22;5854;48.072;16.286;2023-05-19T01:38:07;10.30;80.90
11597;DHT22;5854;48.072;16.286;2023-05-19T01:40:37;10.30;80.80
11597;DHT22;5854;48.072;16.286;2023-05-19T01:43:08;10.30;81.70
11597;DHT22;5854;48.072;16.286;2023-05-19T01:45:39;10.20;82.30
11597;DHT22;5854;48.072;16.286;2023-05-19T01:48:06;10.20;81.40
11597;DHT22;5854;48.072;16.286;2023-05-19T01:50:34;10.20;82.20
11597;DHT22;5854;48.072;16.286;2023-05-19T01:53:01;10.20;81.60
11597;DHT22;5854;48.072;16.286;2023-05-19T01:55:28;10.20;81.10
11597;DHT22;5854;48.072;16.286;2023-05-19T01:58:06;10.20;80.10
11597;DHT22;5854;48.072;16.286;2023-05-19T02:00:45;10.10;79.70
11597;DHT22;5854;48.072;16.286;2023-05-19T02:03:41;10.10;81.70
11597;DHT22;5854;48.072;16.286;2023-05-19T02:06:26;10.10;82.40
11597;DHT22;5854;48.072;16.286;2023-05-19T02:09:00;10.10;81.10
11597;DHT22;5854;48.072;16.286;2023-05-19T02:11:35;10.10;82.00
11597;DHT22;5854;48.072;16.286;2023-05-19T02:14:10;10.10;80.90
11597;DHT22;5854;48.072;16.286;2023-05-19T02:16:44;10.10;82.00
11597;DHT22;5854;48.072;16.286;2023-05-19T02:19:20;10.10;82.30
11597;DHT22;5854;48.072;16.286;2023-05-19T02:21:48;10.00;81.50
11597;DHT22;5854;48.072;16.286;2023-05-19T02:24:15;10.00;82.30
11597;DHT22;5854;48.072;16.286;2023-05-19T02:26:42;10.00;82.50
11597;DHT22;5854;48.072;16.286;2023-05-19T02:29:09;10.00;82.80
11597;DHT22;5854;48.072;16.286;2023-05-19T02:31:36;9.90;82.30
11597;DHT22;5854;48.072;16.286;2023-05-19T02:34:05;9.90;82.40
11597;DHT22;5854;48.072;16.286;2023-05-19T02:36:34;9.90;82.90
11597;DHT22;5854;48.072;16.286;2023-05-19T02:39:01;10.00;81.50
11597;DHT22;5854;48.072;16.286;2023-05-19T02:41:29;10.00;82.30
11597;DHT22;5854;48.072;16.286;2023-05-19T02:43:57;9.90;83.00
11597;DHT22;5854;48.072;16.286;2023-05-19T02:46:24;10.00;80.80
11597;DHT22;5854;48.072;16.286;2023-05-19T02:48:51;9.80;80.60
11597;DHT22;5854;48.072;16.286;2023-05-19T02:51:20;9.90;80.60
11597;DHT22;5854;48.072;16.286;2023-05-19T02:53:47;9.90;81.10
11597;DHT22;5854;48.072;16.286;2023-05-19T02:56:14;9.90;81.00
11597;DHT22;5854;48.072;16.286;2023-05-19T02:58:41;9.90;81.50
11597;DHT22;5854;48.072;16.286;2023-05-19T03:01:09;9.80;80.00
11597;DHT22;5854;48.072;16.286;2023-05-19T03:03:36;9.80;81.40
11597;DHT22;5854;48.072;16.286;2023-05-19T03:06:04;9.70;82.90
11597;DHT22;5854;48.072;16.286;2023-05-19T03:08:34;9.70;82.60
11597;DHT22;5854;48.072;16.286;2023-05-19T03:11:01;9.80;80.80
11597;DHT22;5854;48.072;16.286;2023-05-19T03:13:28;9.70;81.60
11597;DHT22;5854;48.072;16.286;2023-05-19T03:15:56;9.80;82.60
11597;DHT22;5854;48.072;16.286;2023-05-19T03:18:23;9.80;82.10
11597;DHT22;5854;48.072;16.286;2023-05-19T03:20:51;9.80;80.40
11597;DHT22;5854;48.072;16.286;2023-05-19T03:23:19;9.80;79.80
11597;DHT22;5854;48.072;16.286;2023-05-19T03:25:48;9.80;81.70
11597;DHT22;5854;48.072;16.286;2023-05-19T03:28:15;9.80;80.90
11597;DHT22;5854;48.072;16.286;2023-05-19T03:30:42;9.80;82.40
11597;DHT22;5854;48.072;16.286;2023-05-19T03:33:09;9.80;82.20
11597;DHT22;5854;48.072;16.286;2023-05-19T03:35:37;9.80;81.50
11597;DHT22;5854;48.072;16.286;2023-05-19T03:38:04;9.80;80.50
11597;DHT22;5854;48.072;16.286;2023-05-19T03:40:31;9.80;80.60
11597;DHT22;5854;48.072;16.286;2023-05-19T03:42:59;9.80;80.50
11597;DHT22;5854;48.072;16.286;2023-05-19T03:45:26;9.80;81.30
11597;DHT22;5854;48.072;16.286;2023-05-19T03:47:53;9.80;80.10
11597;DHT22;5854;48.072;16.286;2023-05-19T03:50:21;9.70;80.90
11597;DHT22;5854;48.072;16.286;2023-05-19T03:52:48;9.60;83.60
11597;DHT22;5854;48.072;16.286;2023-05-19T03:55:15;9.70;83.40
11597;DHT22;5854;48.072;16.286;2023-05-19T03:57:44;9.70;83.70
11597;DHT22;5854;48.072;16.286;2023-05-19T04:00:14;9.80;81.70
11597;DHT22;5854;48.072;16.286;2023-05-19T04:02:41;9.80;81.10
11597;DHT22;5854;48.072;16.286;2023-05-19T04:05:09;9.80;82.50
11597;DHT22;5854;48.072;16.286;2023-05-19T04:07:36;9.80;81.70
11597;DHT22;5854;48.072;16.286;2023-05-19T04:10:04;9.80;80.60
11597;DHT22;5854;48.072;16.286;2023-05-19T04:12:32;9.90;83.60
11597;DHT22;5854;48.072;16.286;2023-05-19T04:15:00;9.90;84.00
11597;DHT22;5854;48.072;16.286;2023-05-19T04:17:28;9.90;82.50
11597;DHT22;5854;48.072;16.286;2023-05-19T04:19:55;9.90;83.40
11597;DHT22;5854;48.072;16.286;2023-05-19T04:22:22;10.00;81.00
11597;DHT22;5854;48.072;16.286;2023-05-19T04:24:49;10.00;80.40
11597;DHT22;5854;48.072;16.286;2023-05-19T04:27:17;10.00;79.90
11597;DHT22;5854;48.072;16.286;2023-05-19T04:29:44;10.10;82.00
11597;DHT22;5854;48.072;16.286;2023-05-19T04:32:12;10.10;79.80
11597;DHT22;5854;48.072;16.286;2023-05-19T04:34:43;10.10;78.60
11597;DHT22;5854;48.072;16.286;2023-05-19T04:37:11;10.10;78.60
11597;DHT22;5854;48.072;16.286;2023-05-19T04:39:38;10.10;79.40
11597;DHT22;5854;48.072;16.286;2023-05-19T04:42:07;10.10;79.50
11597;DHT22;5854;48.072;16.286;2023-05-19T04:44:36;10.10;81.10
11597;DHT22;5854;48.072;16.286;2023-05-19T04:47:05;10.20;80.30
11597;DHT22;5854;48.072;16.286;2023-05-19T04:49:33;10.30;79.00
11597;DHT22;5854;48.072;16.286;2023-05-19T04:52:05;10.40;78.90
11597;DHT22;5854;48.072;16.286;2023-05-19T04:54:35;10.50;77.80
11597;DHT22;5854;48.072;16.286;2023-05-19T04:57:03;10.50;77.20
11597;DHT22;5854;48.072;16.286;2023-05-19T04:59:30;10.60;76.00
11597;DHT22;5854;48.072;16.286;2023-05-19T05:01:58;10.60;75.50
11597;DHT22;5854;48.072;16.286;2023-05-19T05:04:25;10.60;74.90
11597;DHT22;5854;48.072;16.286;2023-05-19T05:06:52;10.50;74.80
11597;DHT22;5854;48.072;16.286;2023-05-19T05:09:21;10.50;75.60
11597;DHT22;5854;48.072;16.286;2023-05-19T05:11:49;10.50;75.80
11597;DHT22;5854;48.072;16.286;2023-05-19T05:14:17;10.50;74.80
11597;DHT22;5854;48.072;16.286;2023-05-19T05:16:45;10.60;74.80
11597;DHT22;5854;48.072;16.286;2023-05-19T05:19:13;10.60;74.30
11597;DHT22;5854;48.072;16.286;2023-05-19T05:21:40;10.70;74.30
11597;DHT22;5854;48.072;16.286;2023-05-19T05:24:09;10.80;73.70
11597;DHT22;5854;48.072;16.286;2023-05-19T05:26:39;10.90;74.40
11597;DHT22;5854;48.072;16.286;2023-05-19T05:29:08;10.90;72.00
11597;DHT22;5854;48.072;16.286;2023-05-19T05:31:35;10.90;73.60
11597;DHT22;5854;48.072;16.286;2023-05-19T05:34:02;11.10;73.20
11597;DHT22;5854;48.072;16.286;2023-05-19T05:36:29;11.20;73.10
11597;DHT22;5854;48.072;16.286;2023-05-19T05:38:57;11.20;72.80
11597;DHT22;5854;48.072;16.286;2023-05-19T05:41:24;11.30;71.30
11597;DHT22;5854;48.072;16.286;2023-05-19T05:43:53;11.20;71.40
11597;DHT22;5854;48.072;16.286;2023-05-19T05:46:20;11.20;71.90
11597;DHT22;5854;48.072;16.286;2023-05-19T05:48:47;11.30;69.80
11597;DHT22;5854;48.072;16.286;2023-05-19T05:51:15;11.30;69.50
11597;DHT22;5854;48.072;16.286;2023-05-19T05:53:44;11.30;70.70
11597;DHT22;5854;48.072;16.286;2023-05-19T05:56:14;11.30;70.30
11597;DHT22;5854;48.072;16.286;2023-05-19T05:58:42;11.30;71.50
11597;DHT22;5854;48.072;16.286;2023-05-19T06:01:15;11.40;70.10
11597;DHT22;5854;48.072;16.286;2023-05-19T06:03:42;11.50;75.20
11597;DHT22;5854;48.072;16.286;2023-05-19T06:06:11;11.60;71.10
11597;DHT22;5854;48.072;16.286;2023-05-19T06:08:40;12.00;74.70
11597;DHT22;5854;48.072;16.286;2023-05-19T06:11:08;11.90;69.80
11597;DHT22;5854;48.072;16.286;2023-05-19T06:16:08;12.00;70.40
11597;DHT22;5854;48.072;16.286;2023-05-19T06:36:48;12.20;67.10
11597;DHT22;5854;48.072;16.286;2023-05-19T06:39:30;12.30;65.90
11597;DHT22;5854;48.072;16.286;2023-05-19T06:52:28;12.80;66.10
11597;DHT22;5854;48.072;16.286;2023-05-19T06:54:57;12.80;65.80
11597;DHT22;5854;48.072;16.286;2023-05-19T06:57:24;14.30;62.20
11597;DHT22;5854;48.072;16.286;2023-05-19T06:59:51;15.80;53.80
11597;DHT22;5854;48.072;16.286;2023-05-19T07:02:18;16.30;52.30
11597;DHT22;5854;48.072;16.286;2023-05-19T07:04:45;16.00;52.40
11597;DHT22;5854;48.072;16.286;2023-05-19T07:09:47;15.70;53.60
11597;DHT22;5854;48.072;16.286;2023-05-19T07:12:15;14.90;55.60
11597;DHT22;5854;48.072;16.286;2023-05-19T07:19:49;13.70;62.40
11597;DHT22;5854;48.072;16.286;2023-05-19T07:22:16;13.60;61.40
11597;DHT22;5854;48.072;16.286;2023-05-19T07:24:45;13.60;62.60
11597;DHT22;5854;48.072;16.286;2023-05-19T07:32:30;14.00;60.50
11597;DHT22;5854;48.072;16.286;2023-05-19T07:34:58;14.60;58.30
11597;DHT22;5854;48.072;16.286;2023-05-19T07:37:26;14.50;57.40
11597;DHT22;5854;48.072;16.286;2023-05-19T07:39:54;14.40;58.50
11597;DHT22;5854;48.072;16.286;2023-05-19T07:42:21;14.20;58.40
11597;DHT22;5854;48.072;16.286;2023-05-19T07:44:48;14.00;58.50
11597;DHT22;5854;48.072;16.286;2023-05-19T07:47:15;14.10;59.00
11597;DHT22;5854;48.072;16.286;2023-05-19T07:49:42;14.20;59.80
11597;DHT22;5854;48.072;16.286;2023-05-19T07:52:09;14.30;60.40
11597;DHT22;5854;48.072;16.286;2023-05-19T07:54:37;14.40;60.00
11597;DHT22;5854;48.072;16.286;2023-05-19T07:57:05;14.20;57.30
11597;DHT22;5854;48.072;16.286;2023-05-19T07:59:32;14.10;58.60
11597;DHT22;5854;48.072;16.286;2023-05-19T08:01:59;14.20;59.50
11597;DHT22;5854;48.072;16.286;2023-05-19T08:04:26;14.20;59.50
11597;DHT22;5854;48.072;16.286;2023-05-19T08:06:54;14.20;59.00
11597;DHT22;5854;48.072;16.286;2023-05-19T08:09:21;14.00;58.80
11597;DHT22;5854;48.072;16.286;2023-05-19T08:11:48;13.90;60.70
11597;DHT22;5854;48.072;16.286;2023-05-19T08:14:16;14.00;62.30
11597;DHT22;5854;48.072;16.286;2023-05-19T08:16:44;14.20;60.80
11597;DHT22;5854;48.072;16.286;2023-05-19T08:19:12;14.10;58.50
11597;DHT22;5854;48.072;16.286;2023-05-19T08:21:39;14.10;60.10
11597;DHT22;5854;48.072;16.286;2023-05-19T08:24:07;14.20;58.50
11597;DHT22;5854;48.072;16.286;2023-05-19T08:26:34;14.20;59.20
11597;DHT22;5854;48.072;16.286;2023-05-19T08:29:01;14.30;59.10
11597;DHT22;5854;48.072;16.286;2023-05-19T08:31:29;14.30;58.40
11597;DHT22;5854;48.072;16.286;2023-05-19T08:33:57;14.30;58.10
11597;DHT22;5854;48.072;16.286;2023-05-19T08:36:24;14.30;59.00
11597;DHT22;5854;48.072;16.286;2023-05-19T08:38:52;14.30;58.80
11597;DHT22;5854;48.072;16.286;2023-05-19T08:41:19;14.40;58.80
11597;DHT22;5854;48.072;16.286;2023-05-19T08:43:47;14.20;60.50
11597;DHT22;5854;48.072;16.286;2023-05-19T08:46:15;14.20;59.90
11597;DHT22;5854;48.072;16.286;2023-05-19T08:48:45;14.10;60.10
11597;DHT22;5854;48.072;16.286;2023-05-19T08:51:19;14.20;60.50
11597;DHT22;5854;48.072;16.286;2023-05-19T08:53:57;14.20;59.70
11597;DHT22;5854;48.072;16.286;2023-05-19T08:56:28;14.20;61.50
11597;DHT22;5854;48.072;16.286;2023-05-19T08:58:56;14.40;60.90
11597;DHT22;5854;48.072;16.286;2023-05-19T09:01:24;14.40;60.50
11597;DHT22;5854;48.072;16.286;2023-05-19T09:03:54;14.50;59.00
11597;DHT22;5854;48.072;16.286;2023-05-19T09:06:22;14.30;59.10
11597;DHT22;5854;48.072;16.286;2023-05-19T09:08:49;14.40;59.30
11597;DHT22;5854;48.072;16.286;2023-05-19T09:11:16;14.80;59.80
11597;DHT22;5854;48.072;16.286;2023-05-19T09:13:43;15.00;58.40
11597;DHT22;5854;48.072;16.286;2023-05-19T09:16:11;15.20;57.50
11597;DHT22;5854;48.072;16.286;2023-05-19T09:18:38;15.20;58.40
11597;DHT22;5854;48.072;16.286;2023-05-19T09:21:08;15.30;56.60
11597;DHT22;5854;48.072;16.286;2023-05-19T09:23:36;15.70;55.90
11597;DHT22;5854;48.072;16.286;2023-05-19T09:26:04;15.80;55.10
11597;DHT22;5854;48.072;16.286;2023-05-19T09:28:34;15.70;54.10
11597;DHT22;5854;48.072;16.286;2023-05-19T09:31:03;15.70;55.70
11597;DHT22;5854;48.072;16.286;2023-05-19T09:33:33;15.50;54.90
11597;DHT22;5854;48.072;16.286;2023-05-19T09:36:01;15.30;55.20
11597;DHT22;5854;48.072;16.286;2023-05-19T09:38:31;15.40;56.70
11597;DHT22;5854;48.072;16.286;2023-05-19T09:40:59;15.90;58.20
11597;DHT22;5854;48.072;16.286;2023-05-19T09:43:27;15.70;57.00
11597;DHT22;5854;48.072;16.286;2023-05-19T09:45:58;15.80;56.30
11597;DHT22;5854;48.072;16.286;2023-05-19T09:48:26;16.00;57.30
11597;DHT22;5854;48.072;16.286;2023-05-19T09:50:54;16.20;54.20
11597;DHT22;5854;48.072;16.286;2023-05-19T09:53:23;16.10;55.60
11597;DHT22;5854;48.072;16.286;2023-05-19T09:55:55;16.40;54.50
11597;DHT22;5854;48.072;16.286;2023-05-19T09:58:23;16.50;55.20
11597;DHT22;5854;48.072;16.286;2023-05-19T10:00:51;16.40;54.10
11597;DHT22;5854;48.072;16.286;2023-05-19T10:03:20;16.30;54.40
11597;DHT22;5854;48.072;16.286;2023-05-19T10:05:49;16.60;55.30
11597;DHT22;5854;48.072;16.286;2023-05-19T10:08:16;16.60;55.00
11597;DHT22;5854;48.072;16.286;2023-05-19T10:10:45;16.30;56.10
11597;DHT22;5854;48.072;16.286;2023-05-19T10:13:15;16.50;55.30
11597;DHT22;5854;48.072;16.286;2023-05-19T10:15:42;16.50;55.60
11597;DHT22;5854;48.072;16.286;2023-05-19T10:18:11;16.70;55.20
11597;DHT22;5854;48.072;16.286;2023-05-19T10:20:39;16.70;58.10
11597;DHT22;5854;48.072;16.286;2023-05-19T10:23:07;16.70;55.80
11597;DHT22;5854;48.072;16.286;2023-05-19T10:25:34;16.50;54.00
11597;DHT22;5854;48.072;16.286;2023-05-19T10:28:07;16.50;55.60
11597;DHT22;5854;48.072;16.286;2023-05-19T10:30:38;16.60;56.00
11597;DHT22;5854;48.072;16.286;2023-05-19T10:33:09;16.70;55.40
11597;DHT22;5854;48.072;16.286;2023-05-19T10:36:04;16.70;55.10
11597;DHT22;5854;48.072;16.286;2023-05-19T10:38:41;16.60;56.20
11597;DHT22;5854;48.072;16.286;2023-05-19T10:41:20;16.70;56.50
11597;DHT22;5854;48.072;16.286;2023-05-19T10:43:55;16.90;57.80
11597;DHT22;5854;48.072;16.286;2023-05-19T10:46:29;16.90;55.50
11597;DHT22;5854;48.072;16.286;2023-05-19T10:48:57;16.70;57.10
11597;DHT22;5854;48.072;16.286;2023-05-19T10:51:29;16.40;56.90
11597;DHT22;5854;48.072;16.286;2023-05-19T10:53:57;16.60;57.80
11597;DHT22;5854;48.072;16.286;2023-05-19T10:56:28;16.80;57.40
11597;DHT22;5854;48.072;16.286;2023-05-19T10:58:58;16.90;56.50
11597;DHT22;5854;48.072;16.286;2023-05-19T11:01:31;16.90;57.10
11597;DHT22;5854;48.072;16.286;2023-05-19T11:04:04;17.00;58.40
11597;DHT22;5854;48.072;16.286;2023-05-19T11:06:34;17.10;57.60
11597;DHT22;5854;48.072;16.286;2023-05-19T11:09:10;17.40;58.80
11597;DHT22;5854;48.072;16.286;2023-05-19T11:11:46;17.20;58.00
11597;DHT22;5854;48.072;16.286;2023-05-19T11:14:14;17.00;59.40
11597;DHT22;5854;48.072;16.286;2023-05-19T11:16:47;17.00;58.20
11597;DHT22;5854;48.072;16.286;2023-05-19T11:19:18;16.90;58.90
11597;DHT22;5854;48.072;16.286;2023-05-19T11:21:51;17.00;59.10
11597;DHT22;5854;48.072;16.286;2023-05-19T11:24:33;17.00;58.70
11597;DHT22;5854;48.072;16.286;2023-05-19T11:27:16;17.00;55.70
11597;DHT22;5854;48.072;16.286;2023-05-19T11:29:45;17.00;56.80
11597;DHT22;5854;48.072;16.286;2023-05-19T11:32:15;17.00;57.80
11597;DHT22;5854;48.072;16.286;2023-05-19T11:34:43;17.00;57.60
11597;DHT22;5854;48.072;16.286;2023-05-19T11:37:11;17.20;56.70
11597;DHT22;5854;48.072;16.286;2023-05-19T11:39:38;17.40;59.00
11597;DHT22;5854;48.072;16.286;2023-05-19T11:42:07;17.30;56.70
11597;DHT22;5854;48.072;16.286;2023-05-19T11:44:35;17.40;61.30
11597;DHT22;5854;48.072;16.286;2023-05-19T11:47:03;17.40;58.90
11597;DHT22;5854;48.072;16.286;2023-05-19T11:49:32;17.50;58.20
11597;DHT22;5854;48.072;16.286;2023-05-19T11:51:59;17.70;58.10
11597;DHT22;5854;48.072;16.286;2023-05-19T11:54:31;17.70;57.00
11597;DHT22;5854;48.072;16.286;2023-05-19T11:57:01;17.90;57.50
11597;DHT22;5854;48.072;16.286;2023-05-19T11:59:29;18.00;56.90
11597;DHT22;5854;48.072;16.286;2023-05-19T12:02:00;18.20;56.30
11597;DHT22;5854;48.072;16.286;2023-05-19T12:04:29;18.50;56.20
11597;DHT22;5854;48.072;16.286;2023-05-19T12:06:58;19.40;52.60
11597;DHT22;5854;48.072;16.286;2023-05-19T12:09:27;20.20;52.40
11597;DHT22;5854;48.072;16.286;2023-05-19T12:11:54;19.80;50.40
11597;DHT22;5854;48.072;16.286;2023-05-19T12:14:21;19.40;51.90
11597;DHT22;5854;48.072;16.286;2023-05-19T12:16:48;19.00;51.70
11597;DHT22;5854;48.072;16.286;2023-05-19T12:19:16;18.60;54.10
11597;DHT22;5854;48.072;16.286;2023-05-19T12:21:43;18.20;54.20
11597;DHT22;5854;48.072;16.286;2023-05-19T12:24:11;18.10;56.30
11597;DHT22;5854;48.072;16.286;2023-05-19T12:26:39;19.60;52.80
11597;DHT22;5854;48.072;16.286;2023-05-19T12:29:06;19.10;52.90
11597;DHT22;5854;48.072;16.286;2023-05-19T12:31:34;18.80;54.10
11597;DHT22;5854;48.072;16.286;2023-05-19T12:34:02;18.80;56.10
11597;DHT22;5854;48.072;16.286;2023-05-19T12:36:30;19.20;54.20
11597;DHT22;5854;48.072;16.286;2023-05-19T12:38:58;19.10;52.50
11597;DHT22;5854;48.072;16.286;2023-05-19T12:41:28;18.80;55.20
11597;DHT22;5854;48.072;16.286;2023-05-19T12:43:55;18.40;54.10
11597;DHT22;5854;48.072;16.286;2023-05-19T12:46:22;18.90;55.30
11597;DHT22;5854;48.072;16.286;2023-05-19T12:48:49;18.80;54.00
11597;DHT22;5854;48.072;16.286;2023-05-19T12:51:17;18.90;54.50
11597;DHT22;5854;48.072;16.286;2023-05-19T12:53:44;18.90;54.90
11597;DHT22;5854;48.072;16.286;2023-05-19T12:56:12;18.60;54.60
11597;DHT22;5854;48.072;16.286;2023-05-19T12:58:42;18.80;56.50
11597;DHT22;5854;48.072;16.286;2023-05-19T13:01:14;19.90;51.80
11597;DHT22;5854;48.072;16.286;2023-05-19T13:03:42;20.30;51.40
11597;DHT22;5854;48.072;16.286;2023-05-19T13:06:10;19.60;52.00
11597;DHT22;5854;48.072;16.286;2023-05-19T13:08:37;19.30;55.10
11597;DHT22;5854;48.072;16.286;2023-05-19T13:11:05;19.30;55.00
11597;DHT22;5854;48.072;16.286;2023-05-19T13:13:32;19.70;53.30
11597;DHT22;5854;48.072;16.286;2023-05-19T13:16:00;20.00;52.50
11597;DHT22;5854;48.072;16.286;2023-05-19T13:18:28;19.70;54.20
11597;DHT22;5854;48.072;16.286;2023-05-19T13:20:56;19.30;53.90
11597;DHT22;5854;48.072;16.286;2023-05-19T13:23:24;19.00;55.60
11597;DHT22;5854;48.072;16.286;2023-05-19T13:25:51;18.80;56.30
11597;DHT22;5854;48.072;16.286;2023-05-19T13:28:18;18.90;56.40
11597;DHT22;5854;48.072;16.286;2023-05-19T13:30:45;19.10;56.50
11597;DHT22;5854;48.072;16.286;2023-05-19T13:33:14;19.00;56.90
11597;DHT22;5854;48.072;16.286;2023-05-19T13:35:41;18.90;57.70
11597;DHT22;5854;48.072;16.286;2023-05-19T13:38:08;18.80;58.00
11597;DHT22;5854;48.072;16.286;2023-05-19T13:40:36;18.70;58.20
11597;DHT22;5854;48.072;16.286;2023-05-19T13:43:04;18.80;56.70
11597;DHT22;5854;48.072;16.286;2023-05-19T13:45:31;18.80;58.40
11597;DHT22;5854;48.072;16.286;2023-05-19T13:47:59;18.90;58.80
11597;DHT22;5854;48.072;16.286;2023-05-19T13:50:27;19.00;57.70
11597;DHT22;5854;48.072;16.286;2023-05-19T13:52:54;19.00;58.50
11597;DHT22;5854;48.072;16.286;2023-05-19T13:55:21;18.90;57.40
11597;DHT22;5854;48.072;16.286;2023-05-19T13:57:50;18.70;57.30
11597;DHT22;5854;48.072;16.286;2023-05-19T14:00:18;18.70;57.70
11597;DHT22;5854;48.072;16.286;2023-05-19T14:02:45;18.70;56.80
11597;DHT22;5854;48.072;16.286;2023-05-19T14:05:12;19.00;57.70
11597;DHT22;5854;48.072;16.286;2023-05-19T14:07:41;19.10;56.90
11597;DHT22;5854;48.072;16.286;2023-05-19T14:10:09;19.10;55.90
11597;DHT22;5854;48.072;16.286;2023-05-19T14:12:36;19.00;56.70
11597;DHT22;5854;48.072;16.286;2023-05-19T14:15:05;18.90;57.40
11597;DHT22;5854;48.072;16.286;2023-05-19T14:17:33;18.80;58.00
11597;DHT22;5854;48.072;16.286;2023-05-19T14:20:00;18.90;57.40
11597;DHT22;5854;48.072;16.286;2023-05-19T14:22:27;18.90;58.50
11597;DHT22;5854;48.072;16.286;2023-05-19T14:24:55;19.00;56.30
11597;DHT22;5854;48.072;16.286;2023-05-19T14:27:22;19.10;55.80
11597;DHT22;5854;48.072;16.286;2023-05-19T14:29:50;19.10;56.50
11597;DHT22;5854;48.072;16.286;2023-05-19T14:32:17;19.10;56.20
11597;DHT22;5854;48.072;16.286;2023-05-19T14:34:44;19.20;57.10
11597;DHT22;5854;48.072;16.286;2023-05-19T14:37:11;19.20;57.50
11597;DHT22;5854;48.072;16.286;2023-05-19T14:39:38;19.30;56.00
11597;DHT22;5854;48.072;16.286;2023-05-19T14:42:06;19.40;55.30
11597;DHT22;5854;48.072;16.286;2023-05-19T14:44:34;19.30;55.70
11597;DHT22;5854;48.072;16.286;2023-05-19T14:47:02;19.40;57.00
11597;DHT22;5854;48.072;16.286;2023-05-19T14:49:31;19.30;54.60
11597;DHT22;5854;48.072;16.286;2023-05-19T14:51:58;19.30;54.80
11597;DHT22;5854;48.072;16.286;2023-05-19T14:54:25;19.20;56.20
11597;DHT22;5854;48.072;16.286;2023-05-19T14:56:52;19.20;56.10
11597;DHT22;5854;48.072;16.286;2023-05-19T14:59:21;19.20;56.10
11597;DHT22;5854;48.072;16.286;2023-05-19T15:01:49;19.20;56.70
11597;DHT22;5854;48.072;16.286;2023-05-19T15:04:16;19.30;56.30
11597;DHT22;5854;48.072;16.286;2023-05-19T15:06:43;19.10;57.00
11597;DHT22;5854;48.072;16.286;2023-05-19T15:09:10;19.10;58.50
11597;DHT22;5854;48.072;16.286;2023-05-19T15:11:39;19.10;59.30
11597;DHT22;5854;48.072;16.286;2023-05-19T15:14:06;19.00;59.20
11597;DHT22;5854;48.072;16.286;2023-05-19T15:16:34;18.90;60.20
11597;DHT22;5854;48.072;16.286;2023-05-19T15:19:01;18.80;58.80
11597;DHT22;5854;48.072;16.286;2023-05-19T15:21:28;18.70;60.10
11597;DHT22;5854;48.072;16.286;2023-05-19T15:23:55;18.80;59.00
11597;DHT22;5854;48.072;16.286;2023-05-19T15:26:22;18.70;59.30
11597;DHT22;5854;48.072;16.286;2023-05-19T15:28:51;18.80;59.50
11597;DHT22;5854;48.072;16.286;2023-05-19T15:31:18;18.80;60.50
11597;DHT22;5854;48.072;16.286;2023-05-19T15:33:47;18.70;62.20
11597;DHT22;5854;48.072;16.286;2023-05-19T15:36:14;18.80;61.20
11597;DHT22;5854;48.072;16.286;2023-05-19T15:38:41;18.80;60.00
11597;DHT22;5854;48.072;16.286;2023-05-19T15:41:09;18.80;61.00
11597;DHT22;5854;48.072;16.286;2023-05-19T15:43:36;18.90;62.40
11597;DHT22;5854;48.072;16.286;2023-05-19T15:46:03;19.00;61.70
11597;DHT22;5854;48.072;16.286;2023-05-19T15:48:30;19.00;61.90
11597;DHT22;5854;48.072;16.286;2023-05-19T15:50:59;18.90;60.00
11597;DHT22;5854;48.072;16.286;2023-05-19T15:53:26;18.90;61.70
11597;DHT22;5854;48.072;16.286;2023-05-19T15:55:53;18.70;60.80
11597;DHT22;5854;48.072;16.286;2023-05-19T15:58:21;18.70;60.60
11597;DHT22;5854;48.072;16.286;2023-05-19T16:00:49;18.60;59.60
11597;DHT22;5854;48.072;16.286;2023-05-19T16:03:16;18.50;60.10
11597;DHT22;5854;48.072;16.286;2023-05-19T16:05:43;18.50;60.30
11597;DHT22;5854;48.072;16.286;2023-05-19T16:08:12;18.50;59.40
11597;DHT22;5854;48.072;16.286;2023-05-19T16:10:39;18.50;60.30
11597;DHT22;5854;48.072;16.286;2023-05-19T16:13:06;18.50;58.90
11597;DHT22;5854;48.072;16.286;2023-05-19T16:15:33;18.50;58.90
11597;DHT22;5854;48.072;16.286;2023-05-19T16:18:00;18.50;59.00
11597;DHT22;5854;48.072;16.286;2023-05-19T16:20:27;18.40;57.70
11597;DHT22;5854;48.072;16.286;2023-05-19T16:22:55;18.30;59.60
11597;DHT22;5854;48.072;16.286;2023-05-19T16:25:23;18.30;59.00
11597;DHT22;5854;48.072;16.286;2023-05-19T16:27:51;18.20;59.60
11597;DHT22;5854;48.072;16.286;2023-05-19T16:30:18;18.20;59.90